Time;durP1;ratioP1;P1;durP2;ratioP2;P2;SDS_P1;SDS_P2;PMS_P1;PMS_P2;Temp;Humidity;BMP_temperature;BMP_pressure;BME280_temperature;BME280_humidity;BME280_pressure;Samples;Min_cycle;Max_cycle;Signal;HPM_P1;HPM_P2
2022/07/20 00:00:06;;;;;;;10.55;5.82;;;;;;;24.32;40.43;100741.47;667135;29;1442;-90
2022/07/20 00:00:31;;;;;;;10.73;5.80;;;;;;;24.35;40.35;100745.84;670603;29;1990;-89
2022/07/20 00:00:52;;;;;;;9.43;5.75;;;;;;;24.30;40.31;100742.41;671968;29;1221;-90
2022/07/20 00:01:12;;;;;;;9.38;5.65;;;;;;;24.26;40.34;100741.63;671889;29;1412;-90
2022/07/20 00:01:33;;;;;;;7.50;5.53;;;;;;;24.27;40.56;100738.06;669572;29;1908;-90
2022/07/20 00:01:54;;;;;;;8.88;6.07;;;;;;;24.29;40.55;100744.19;664551;29;1555;-90
2022/07/20 00:02:15;;;;;;;8.00;6.00;;;;;;;24.26;40.70;100752.31;668713;29;1840;-90
2022/07/20 00:02:36;;;;;;;9.30;5.90;;;;;;;24.27;40.40;100750.53;664634;29;1845;-90
2022/07/20 00:03:02;;;;;;;9.05;5.80;;;;;;;24.15;40.64;100722.44;669444;29;1352;-88
2022/07/20 00:03:23;;;;;;;10.73;5.80;;;;;;;24.19;40.85;100740.06;672258;29;1782;-88
2022/07/20 00:03:45;;;;;;;8.97;5.70;;;;;;;24.19;40.68;100743.63;672147;29;2015;-88
2022/07/20 00:04:06;;;;;;;8.00;5.50;;;;;;;24.22;40.81;100751.53;671648;29;1659;-88
2022/07/20 00:04:27;;;;;;;6.53;5.40;;;;;;;24.14;40.79;100737.56;668546;29;1842;-88
2022/07/20 00:04:49;;;;;;;7.30;5.57;;;;;;;24.20;40.96;100749.81;664772;29;1155;-88
2022/07/20 00:05:10;;;;;;;8.13;6.00;;;;;;;24.17;40.98;100747.25;666831;29;1534;-88
2022/07/20 00:05:30;;;;;;;8.70;6.00;;;;;;;24.13;40.73;100745.59;674309;29;1720;-88
2022/07/20 00:05:51;;;;;;;10.75;5.90;;;;;;;24.08;40.93;100743.94;666822;29;1610;-88
2022/07/20 00:06:14;;;;;;;10.70;5.60;;;;;;;24.13;40.70;100742.91;663073;29;1735;-87
2022/07/20 00:06:35;;;;;;;8.68;5.60;;;;;;;24.12;40.73;100755.38;669121;29;1843;-88
2022/07/20 00:06:56;;;;;;;6.53;5.70;;;;;;;24.13;40.85;100750.91;664419;29;1270;-88
2022/07/20 00:07:20;;;;;;;6.53;5.90;;;;;;;24.00;40.68;100737.97;668160;29;1757;-87
2022/07/20 00:07:40;;;;;;;11.90;5.90;;;;;;;23.99;40.86;100738.88;664761;29;1936;-87
2022/07/20 00:08:02;;;;;;;12.50;6.00;;;;;;;24.06;41.06;100753.78;667924;29;1395;-88
2022/07/20 00:11:20;;;;;;;7.50;6.35;;;;;;;23.98;41.20;100754.91;667252;29;1510;-89
2022/07/20 00:11:40;;;;;;;9.00;6.20;;;;;;;23.97;41.12;100751.34;669265;29;1501;-90
2022/07/20 00:12:01;;;;;;;9.38;6.20;;;;;;;23.89;41.40;100740.03;666862;29;1179;-90
2022/07/20 00:12:22;;;;;;;8.40;5.90;;;;;;;23.88;41.20;100736.53;663680;29;1483;-90
2022/07/20 00:12:43;;;;;;;9.23;5.70;;;;;;;23.92;41.26;100745.31;667175;29;1991;-90
2022/07/20 00:13:03;;;;;;;9.40;5.90;;;;;;;23.91;41.18;100746.22;664005;29;1602;-90
2022/07/20 00:13:24;;;;;;;10.27;5.97;;;;;;;23.93;41.20;100744.38;660672;29;1706;-90
2022/07/20 00:13:55;;;;;;;9.25;6.25;;;;;;;23.88;41.17;100743.63;663921;29;2067;-90
2022/07/20 00:14:16;;;;;;;8.85;6.22;;;;;;;23.87;41.28;100739.22;666221;29;1782;-90
2022/07/20 00:14:37;;;;;;;9.73;5.93;;;;;;;23.93;41.48;100757.72;668102;29;1860;-90
2022/07/20 00:15:00;;;;;;;10.55;5.65;;;;;;;23.88;41.31;100747.19;666924;29;1677;-90
2022/07/20 00:15:21;;;;;;;9.40;5.53;;;;;;;23.87;41.29;100744.56;666000;29;1736;-90
2022/07/20 00:15:43;;;;;;;8.50;5.60;;;;;;;23.85;41.47;100746.41;670166;29;2062;-90
2022/07/20 00:16:04;;;;;;;6.75;5.50;;;;;;;23.86;41.36;100748.13;667360;29;1325;-90
2022/07/20 00:16:26;;;;;;;7.07;5.57;;;;;;;23.80;41.43;100734.06;666330;29;1696;-90
2022/07/20 00:16:47;;;;;;;8.20;5.60;;;;;;;23.85;41.35;100747.25;664316;29;1262;-88
2022/07/20 00:17:08;;;;;;;8.60;5.70;;;;;;;23.85;41.27;100746.41;666329;29;1595;-88
2022/07/20 00:17:28;;;;;;;9.07;5.50;;;;;;;23.82;41.35;100742.03;665473;29;1751;-87
2022/07/20 00:17:49;;;;;;;11.17;5.70;;;;;;;23.86;41.26;100745.47;669133;29;1258;-88
2022/07/20 00:18:10;;;;;;;11.25;5.60;;;;;;;23.89;41.33;100753.38;666870;29;1321;-88
2022/07/20 00:18:31;;;;;;;10.13;5.95;;;;;;;23.89;41.29;100751.59;665943;29;1723;-88
2022/07/20 00:18:51;;;;;;;8.03;5.97;;;;;;;23.88;41.22;100754.28;666580;29;1661;-88
2022/07/20 00:19:12;;;;;;;8.77;6.37;;;;;;;23.83;41.37;100751.75;663963;29;1321;-88
2022/07/20 00:19:33;;;;;;;8.52;6.13;;;;;;;23.78;41.49;100740.38;666123;29;1737;-88
2022/07/20 00:19:54;;;;;;;8.48;6.30;;;;;;;23.79;41.38;100748.31;666817;29;1245;-88
2022/07/20 00:20:14;;;;;;;11.63;6.65;;;;;;;23.78;41.59;100743.91;661463;29;1706;-88
2022/07/20 00:20:36;;;;;;;12.30;7.03;;;;;;;23.77;42.00;100743.94;664026;29;2045;-88
2022/07/20 00:20:57;;;;;;;11.73;6.75;;;;;;;23.82;41.74;100742.03;669428;29;1240;-87
2022/07/20 00:21:20;;;;;;;8.45;6.50;;;;;;;23.79;41.79;100748.31;666099;29;1756;-88
2022/07/20 00:21:41;;;;;;;9.80;6.40;;;;;;;23.82;41.52;100758.00;668321;29;1856;-88
2022/07/20 00:22:04;;;;;;;10.07;6.05;;;;;;;23.74;41.46;100741.38;665487;29;1366;-88
2022/07/20 00:22:25;;;;;;;10.13;5.80;;;;;;;23.74;41.66;100742.25;665962;29;1681;-88
2022/07/20 00:22:46;;;;;;;9.93;6.00;;;;;;;23.79;41.93;100753.63;666710;29;1963;-87
2022/07/20 00:23:09;;;;;;;8.87;6.20;;;;;;;23.77;41.62;100744.81;665267;29;1176;-88
2022/07/20 00:23:29;;;;;;;8.15;6.35;;;;;;;23.72;41.67;100736.06;663198;29;1773;-88
2022/07/20 00:23:51;;;;;;;8.13;6.00;;;;;;;23.80;41.78;100752.72;673735;29;1563;-87
2022/07/20 00:24:12;;;;;;;9.38;5.90;;;;;;;23.81;41.84;100754.44;669007;29;1282;-88
2022/07/20 00:24:32;;;;;;;10.33;5.80;;;;;;;23.77;41.70;100744.81;668919;29;1736;-88
2022/07/20 00:24:54;;;;;;;9.23;6.00;;;;;;;23.81;41.86;100746.47;673708;29;1265;-87
2022/07/20 00:25:14;;;;;;;9.90;6.22;;;;;;;23.75;41.65;100738.66;667492;29;1707;-87
2022/07/20 00:25:35;;;;;;;10.38;6.28;;;;;;;23.80;41.80;100744.72;666344;29;1901;-88
2022/07/20 00:25:56;;;;;;;10.75;6.50;;;;;;;23.78;41.57;100743.91;659431;29;1267;-88
2022/07/20 00:26:17;;;;;;;10.30;6.80;;;;;;;23.77;41.64;100742.16;665595;29;1700;-87
2022/07/20 00:26:38;;;;;;;9.20;6.70;;;;;;;23.78;41.69;100743.91;668305;29;1894;-88
2022/07/20 00:26:58;;;;;;;7.80;6.03;;;;;;;23.76;41.89;100739.53;666704;29;1761;-87
2022/07/20 00:27:19;;;;;;;8.43;5.70;;;;;;;23.82;41.64;100753.56;667244;29;1646;-87
2022/07/20 00:27:40;;;;;;;8.27;5.50;;;;;;;23.80;41.52;100744.72;670431;29;1739;-88
2022/07/20 00:28:00;;;;;;;7.60;5.53;;;;;;;23.76;41.70;100736.84;666989;29;1224;-87
2022/07/20 00:28:21;;;;;;;9.50;5.85;;;;;;;23.82;41.53;100742.91;669490;29;1784;-88
2022/07/20 00:28:44;;;;;;;10.15;6.20;;;;;;;23.83;41.80;100739.31;671647;29;1945;-88
2022/07/20 00:29:05;;;;;;;10.23;6.40;;;;;;;23.75;41.74;100736.00;669514;29;1351;-88
2022/07/20 00:29:28;;;;;;;9.52;6.43;;;;;;;23.79;41.46;100737.66;667416;29;1657;-88
2022/07/20 00:29:49;;;;;;;11.80;6.60;;;;;;;23.77;41.64;100743.94;668821;29;1239;-88
2022/07/20 00:30:11;;;;;;;11.80;6.40;;;;;;;23.77;41.69;100744.81;666084;29;1189;-88
2022/07/20 00:30:31;;;;;;;11.95;6.15;;;;;;;23.71;41.64;100744.09;665024;29;1697;-88
2022/07/20 00:30:55;;;;;;;10.60;5.88;;;;;;;23.63;41.76;100725.63;664291;29;1403;-88
2022/07/20 00:31:17;;;;;;;10.88;6.28;;;;;;;23.72;41.74;100749.38;666823;29;1732;-88
2022/07/20 00:31:38;;;;;;;13.05;6.70;;;;;;;23.67;41.61;100743.31;668777;29;1981;-88
2022/07/20 00:31:59;;;;;;;17.33;6.40;;;;;;;23.61;41.81;100733.66;666824;29;1146;-87
2022/07/20 00:32:20;;;;;;;16.30;6.10;;;;;;;23.70;41.69;100753.84;662431;29;1695;-88
2022/07/20 00:32:40;;;;;;;14.15;5.80;;;;;;;23.62;41.97;100739.88;668964;29;1493;-88
2022/07/20 00:33:01;;;;;;;11.52;6.10;;;;;;;23.66;41.80;100758.41;669247;29;1313;-88
2022/07/20 00:33:22;;;;;;;11.02;5.90;;;;;;;23.60;41.82;100745.25;663835;29;1689;-87
2022/07/20 00:33:46;;;;;;;10.07;5.80;;;;;;;23.61;41.73;100751.44;668488;29;2046;-88
2022/07/20 00:34:07;;;;;;;8.23;6.00;;;;;;;23.56;41.53;100747.09;662343;29;1337;-88
2022/07/20 00:34:27;;;;;;;8.10;6.20;;;;;;;23.55;41.87;100748.03;665955;29;1761;-88
2022/07/20 00:34:48;;;;;;;9.27;6.78;;;;;;;23.50;41.70;100736.66;666855;29;1494;-88
2022/07/20 00:35:12;;;;;;;8.50;6.47;;;;;;;23.54;41.62;100742.72;669424;29;1208;-87
2022/07/20 00:35:33;;;;;;;9.30;6.38;;;;;;;23.52;41.90;100745.47;668471;29;1748;-88
2022/07/20 00:35:54;;;;;;;11.07;6.40;;;;;;;23.52;41.67;100748.13;664146;29;1222;-88
2022/07/20 00:36:16;;;;;;;10.68;6.60;;;;;;;23.58;41.85;100746.19;664515;29;1159;-88
2022/07/20 00:36:36;;;;;;;10.65;6.57;;;;;;;23.46;41.81;100734.06;669613;29;1807;-87
2022/07/20 00:36:57;;;;;;;10.23;6.88;;;;;;;23.45;41.64;100732.34;671686;29;1307;-88
2022/07/20 00:37:18;;;;;;;10.30;6.77;;;;;;;23.51;41.92;100743.72;664492;29;1624;-88
2022/07/20 00:37:39;;;;;;;9.77;6.65;;;;;;;23.54;41.78;100748.94;669623;29;1667;-88
2022/07/20 00:38:00;;;;;;;7.57;6.22;;;;;;;23.44;41.76;100731.47;670378;29;1603;-87
2022/07/20 00:38:21;;;;;;;7.40;6.60;;;;;;;23.51;41.44;100743.72;664516;29;1687;-88
2022/07/20 00:38:42;;;;;;;7.68;6.88;;;;;;;23.48;41.68;100740.25;669628;29;1871;-87
2022/07/20 00:39:02;;;;;;;8.55;6.80;;;;;;;23.53;41.39;100756.97;665153;29;1438;-88
2022/07/20 00:39:23;;;;;;;9.93;6.80;;;;;;;23.51;41.50;100746.38;668148;29;1727;-87
2022/07/20 00:39:44;;;;;;;9.25;6.40;;;;;;;23.52;41.49;100750.78;669010;29;1997;-88
2022/07/20 00:40:06;;;;;;;9.27;6.40;;;;;;;23.47;41.37;100742.03;667617;29;1524;-88
2022/07/20 00:40:30;;;;;;;9.77;6.30;;;;;;;23.51;41.40;100751.69;665418;29;2012;-88
2022/07/20 00:40:51;;;;;;;13.32;6.40;;;;;;;23.52;40.99;100745.47;665357;29;1439;-87
2022/07/20 00:41:13;;;;;;;13.13;6.20;;;;;;;23.45;40.82;100741.22;666675;29;1468;-87
2022/07/20 00:41:34;;;;;;;14.18;6.50;;;;;;;23.47;40.93;100741.19;668264;29;1742;-87
2022/07/20 00:41:54;;;;;;;10.30;6.47;;;;;;;23.48;41.00;100742.91;667488;29;1138;-87
2022/07/20 00:42:15;;;;;;;8.98;6.40;;;;;;;23.39;40.94;100733.38;664613;29;1712;-87
2022/07/20 00:42:37;;;;;;;6.82;6.10;;;;;;;23.43;41.06;100735.06;663247;29;1801;-86
2022/07/20 00:42:57;;;;;;;7.97;6.00;;;;;;;23.44;40.92;100742.13;662011;29;1111;-87
2022/07/20 00:43:18;;;;;;;8.68;6.40;;;;;;;23.44;41.23;100739.47;666059;29;1692;-88
2022/07/20 00:44:01;;;;;;;9.83;6.50;;;;;;;23.49;41.14;100750.84;667704;29;1226;-88
2022/07/20 00:44:21;;;;;;;14.20;6.00;;;;;;;23.46;41.15;100744.72;665822;29;1723;-87
2022/07/20 00:44:42;;;;;;;12.30;6.20;;;;;;;23.43;41.09;100735.06;665346;29;1931;-88
2022/07/20 00:45:05;;;;;;;10.17;6.23;;;;;;;23.44;40.96;100739.47;666969;29;1221;-88
2022/07/20 00:45:26;;;;;;;9.40;6.50;;;;;;;23.45;41.24;100738.53;665773;29;1772;-88
2022/07/20 00:45:49;;;;;;;9.25;6.45;;;;;;;23.40;41.22;100735.13;664112;29;1948;-88
2022/07/20 00:46:10;;;;;;;7.63;6.40;;;;;;;23.40;41.58;100737.78;669511;29;1293;-88
2022/07/20 00:46:33;;;;;;;8.30;6.28;;;;;;;23.45;41.16;100748.31;666016;29;1736;-88
2022/07/20 00:46:55;;;;;;;9.02;6.60;;;;;;;23.37;41.61;100733.41;665795;29;1470;-88
2022/07/20 00:47:16;;;;;;;8.90;6.80;;;;;;;23.40;41.31;100740.44;667233;29;1596;-88
2022/07/20 00:47:37;;;;;;;8.60;6.50;;;;;;;23.34;41.38;100724.63;670502;29;1751;-87
2022/07/20 00:47:58;;;;;;;7.38;5.97;;;;;;;23.39;41.43;100733.38;664146;29;1718;-88
2022/07/20 00:48:18;;;;;;;9.77;5.97;;;;;;;23.40;41.42;100741.34;666366;29;1777;-88
2022/07/20 00:48:39;;;;;;;10.60;6.10;;;;;;;23.38;41.48;100727.19;669453;29;1970;-88
2022/07/20 00:49:00;;;;;;;13.03;6.50;;;;;;;23.39;41.23;100733.38;666429;29;1275;-88
2022/07/20 00:49:24;;;;;;;11.48;6.35;;;;;;;23.41;41.48;100736.88;670980;29;1741;-88
2022/07/20 00:50:35;;;;;;;12.33;6.30;;;;;;;23.44;41.46;100747.44;670893;29;2011;-87
2022/07/20 00:50:55;;;;;;;10.23;6.20;;;;;;;23.43;41.62;100745.72;664325;29;1230;-88
2022/07/20 00:51:16;;;;;;;9.53;5.97;;;;;;;23.36;41.83;100734.31;668152;29;1701;-88
2022/07/20 00:51:44;;;;;;;11.00;6.03;;;;;;;23.37;41.68;100732.56;666391;29;1753;-88
2022/07/20 00:52:05;;;;;;;17.95;6.40;;;;;;;23.36;41.66;100728.16;668667;29;1633;-88
2022/07/20 00:52:26;;;;;;;19.50;6.30;;;;;;;23.39;41.65;100738.69;669981;29;1671;-88
2022/07/20 00:52:47;;;;;;;9.82;5.80;;;;;;;23.39;41.91;100733.38;670398;29;2037;-88
2022/07/20 00:53:08;;;;;;;10.95;6.30;;;;;;;23.33;42.04;100725.53;667955;29;1200;-87
2022/07/20 00:53:29;;;;;;;8.43;6.27;;;;;;;23.37;41.65;100729.88;667840;29;1659;-88
2022/07/20 00:53:51;;;;;;;7.55;6.15;;;;;;;23.37;41.95;100732.56;673869;29;1575;-88
2022/07/20 00:54:44;;;;;;;8.40;5.85;;;;;;;23.38;41.94;100743.16;669348;29;1212;-88
2022/07/20 00:55:06;;;;;;;11.27;5.75;;;;;;;23.35;42.13;100742.38;665275;29;1225;-88
2022/07/20 00:55:26;;;;;;;14.88;6.35;;;;;;;23.33;42.21;100738.84;665109;29;1713;-88
2022/07/20 00:55:47;;;;;;;15.73;6.60;;;;;;;23.26;42.12;100720.41;669135;29;1934;-88
2022/07/20 00:56:08;;;;;;;12.27;6.33;;;;;;;23.25;41.94;100726.63;670185;29;1157;-88
2022/07/20 00:56:29;;;;;;;9.23;5.90;;;;;;;23.27;42.32;100735.47;664913;29;1817;-88
2022/07/20 00:56:50;;;;;;;8.60;5.97;;;;;;;23.27;42.41;100730.13;667993;29;1656;-88
2022/07/20 00:57:14;;;;;;;9.10;5.82;;;;;;;23.26;42.16;100724.84;664721;29;1798;-88
2022/07/20 00:57:35;;;;;;;11.63;6.10;;;;;;;23.24;42.34;100729.34;662369;29;1732;-88
2022/07/20 00:57:56;;;;;;;11.23;6.40;;;;;;;23.28;42.13;100726.56;666908;29;1927;-88
2022/07/20 00:58:16;;;;;;;12.70;6.60;;;;;;;23.26;42.17;100723.06;664433;29;1692;-87
2022/07/20 00:58:37;;;;;;;9.80;6.00;;;;;;;23.28;42.06;100725.66;664011;29;1886;-87
2022/07/20 00:58:58;;;;;;;10.43;6.00;;;;;;;23.35;42.22;100731.72;663655;29;1792;-88
2022/07/20 00:59:19;;;;;;;10.23;6.40;;;;;;;23.37;42.32;100729.88;665656;29;1768;-88
2022/07/20 00:59:39;;;;;;;10.70;6.90;;;;;;;23.34;42.12;100724.63;668856;29;1705;-88
2022/07/20 01:00:01;;;;;;;10.10;6.50;;;;;;;23.28;41.96;100718.56;671192;29;1225;-87
2022/07/20 01:00:21;;;;;;;10.52;6.07;;;;;;;23.33;42.07;100717.56;669832;29;1842;-88
2022/07/20 01:00:42;;;;;;;9.83;5.90;;;;;;;23.33;42.19;100717.56;669058;29;1905;-88
2022/07/20 01:01:03;;;;;;;8.50;5.85;;;;;;;23.36;42.22;100729.00;666710;29;1095;-87
2022/07/20 01:01:24;;;;;;;9.23;6.20;;;;;;;23.40;41.97;100732.47;665615;29;1756;-88
2022/07/20 01:01:44;;;;;;;10.20;6.20;;;;;;;23.29;42.05;100708.78;666615;29;1883;-88
2022/07/20 01:02:05;;;;;;;10.67;6.53;;;;;;;23.34;42.16;100719.31;664940;29;1599;-87
2022/07/20 01:02:26;;;;;;;12.93;6.40;;;;;;;23.32;41.99;100716.69;662349;29;1663;-88
2022/07/20 01:02:47;;;;;;;13.00;6.90;;;;;;;23.33;42.10;100725.53;669443;29;1977;-88
2022/07/20 01:03:08;;;;;;;11.82;6.60;;;;;;;23.30;42.19;100715.84;668807;29;1608;-87
2022/07/20 01:04:02;;;;;;;8.05;6.35;;;;;;;23.36;42.08;100734.31;663610;29;1832;-88
2022/07/20 01:04:23;;;;;;;9.23;6.10;;;;;;;23.33;41.90;100722.88;664299;29;1755;-88
2022/07/20 01:04:44;;;;;;;10.45;5.95;;;;;;;23.32;41.94;100721.13;668788;29;2027;-88
2022/07/20 01:05:13;;;;;;;10.07;5.80;;;;;;;23.30;41.94;100722.97;664013;29;1250;-87
2022/07/20 01:05:34;;;;;;;9.32;6.03;;;;;;;23.23;42.33;100711.63;668663;29;1591;-88
2022/07/20 01:05:55;;;;;;;7.80;5.85;;;;;;;23.28;42.15;100731.88;671823;29;1357;-88
2022/07/20 01:06:16;;;;;;;8.68;6.00;;;;;;;23.25;41.98;100720.44;664704;29;1349;-87
2022/07/20 01:06:37;;;;;;;8.95;6.13;;;;;;;23.16;42.15;100708.22;671352;29;1956;-88
2022/07/20 01:06:58;;;;;;;8.98;6.03;;;;;;;23.21;42.27;100714.31;665785;29;1802;-88
2022/07/20 01:07:19;;;;;;;7.72;6.03;;;;;;;23.25;42.23;100725.75;665327;29;1843;-88
2022/07/20 01:07:42;;;;;;;10.25;5.90;;;;;;;23.21;42.57;100724.97;669005;29;1989;-89
2022/07/20 01:08:04;;;;;;;11.30;6.20;;;;;;;23.19;42.30;100723.25;668321;29;1208;-86
2022/07/20 01:08:26;;;;;;;9.60;6.20;;;;;;;23.10;42.35;100708.38;673299;29;1691;-87
2022/07/20 01:08:51;;;;;;;12.30;6.20;;;;;;;23.19;42.59;100721.47;666271;29;1638;-88
2022/07/20 01:09:12;;;;;;;13.07;6.43;;;;;;;23.14;42.63;100723.38;668797;29;1342;-87
2022/07/20 01:09:32;;;;;;;13.43;6.40;;;;;;;23.18;42.72;100725.03;665321;29;1673;-88
2022/07/20 01:09:53;;;;;;;9.47;6.07;;;;;;;23.19;42.48;100724.13;661604;29;1039;-88
2022/07/20 01:10:15;;;;;;;10.73;5.78;;;;;;;23.09;42.44;100711.97;667126;29;1228;-88
2022/07/20 01:10:37;;;;;;;10.32;5.85;;;;;;;23.22;42.54;100725.81;663980;29;1633;-88
2022/07/20 01:10:58;;;;;;;10.40;6.20;;;;;;;23.19;42.58;100724.13;669435;29;1217;-87
2022/07/20 01:11:19;;;;;;;8.85;6.35;;;;;;;23.21;42.78;100732.94;670547;29;1654;-88
2022/07/20 01:11:41;;;;;;;10.27;6.20;;;;;;;23.19;42.67;100721.47;667155;29;1573;-87
2022/07/20 01:12:02;;;;;;;11.85;6.38;;;;;;;23.19;42.42;100726.81;666552;29;1562;-88
2022/07/20 01:12:23;;;;;;;11.38;6.07;;;;;;;23.22;42.51;100737.34;661916;29;1808;-88
2022/07/20 01:12:46;;;;;;;11.07;6.20;;;;;;;23.18;42.54;100725.03;668351;29;1923;-88
2022/07/20 01:13:07;;;;;;;12.27;6.38;;;;;;;23.22;42.44;100729.38;668687;29;1292;-88
2022/07/20 01:13:28;;;;;;;13.05;6.53;;;;;;;23.22;42.30;100729.38;664729;29;2060;-88
2022/07/20 01:13:49;;;;;;;10.82;6.25;;;;;;;23.13;42.29;100710.97;666578;29;1985;-88
2022/07/20 01:14:10;;;;;;;11.07;6.43;;;;;;;23.20;42.35;100723.22;667632;29;1444;-88
2022/07/20 01:14:31;;;;;;;8.75;6.50;;;;;;;23.09;42.43;100710.19;664819;29;1656;-88
2022/07/20 01:14:54;;;;;;;8.07;6.53;;;;;;;23.19;42.08;100723.25;664224;29;1551;-88
2022/07/20 01:15:17;;;;;;;10.50;6.90;;;;;;;23.19;41.89;100723.25;667354;29;1203;-88
2022/07/20 01:15:37;;;;;;;10.90;6.90;;;;;;;23.13;42.14;100711.84;669053;29;1748;-88
2022/07/20 01:15:58;;;;;;;10.60;7.20;;;;;;;23.08;42.11;100712.88;668932;29;1267;-88
2022/07/20 01:16:19;;;;;;;10.30;6.60;;;;;;;23.12;41.90;100714.56;670804;29;1709;-88
2022/07/20 01:16:40;;;;;;;11.18;6.50;;;;;;;23.12;41.89;100719.88;671638;29;2136;-88
2022/07/20 01:17:00;;;;;;;10.48;6.25;;;;;;;23.09;41.93;100717.28;664968;29;1678;-87
2022/07/20 01:17:21;;;;;;;9.20;6.13;;;;;;;23.09;41.83;100714.63;668203;29;1791;-88
2022/07/20 01:17:42;;;;;;;8.77;6.38;;;;;;;23.08;41.91;100719.09;671066;29;1960;-88
2022/07/20 01:18:03;;;;;;;8.30;6.43;;;;;;;23.13;41.81;100726.94;666749;29;1315;-88
2022/07/20 01:18:24;;;;;;;9.02;6.47;;;;;;;23.07;42.04;100721.78;665682;29;1634;-88
2022/07/20 01:18:45;;;;;;;9.30;6.00;;;;;;;23.07;42.14;100727.09;666652;29;1987;-87
2022/07/20 01:19:06;;;;;;;9.40;5.80;;;;;;;23.07;42.07;100729.75;666136;29;1634;-88
2022/07/20 01:19:30;;;;;;;8.38;6.20;;;;;;;23.07;42.00;100727.09;670805;29;1670;-88
2022/07/20 01:19:51;;;;;;;9.57;6.25;;;;;;;22.97;41.89;100714.00;666326;29;1288;-87
2022/07/20 01:20:52;;;;;;;9.55;6.22;;;;;;;23.06;42.22;100733.34;660218;29;1149;-88
2022/07/20 01:21:14;;;;;;;8.55;6.10;;;;;;;22.97;42.14;100718.44;664180;29;1440;-88
2022/07/20 01:21:40;;;;;;;8.45;5.97;;;;;;;22.98;41.83;100729.03;663721;29;1777;-87
2022/07/20 01:22:04;;;;;;;9.20;6.25;;;;;;;22.97;42.06;100726.41;669387;29;1314;-88
2022/07/20 01:22:25;;;;;;;8.70;6.50;;;;;;;22.94;42.19;100724.69;667957;29;2127;-87
2022/07/20 01:22:46;;;;;;;8.07;6.30;;;;;;;22.92;41.95;100731.84;669174;29;1891;-88
2022/07/20 01:23:07;;;;;;;6.82;6.13;;;;;;;22.81;41.97;100709.97;667258;29;1177;-87
2022/07/20 01:23:28;;;;;;;7.32;5.95;;;;;;;22.83;41.97;100702.81;667322;29;1767;-88
2022/07/20 01:23:48;;;;;;;8.52;6.38;;;;;;;22.89;42.21;100723.97;666793;29;1982;-88
2022/07/20 01:24:11;;;;;;;9.40;6.80;;;;;;;22.86;42.36;100724.00;661040;29;1584;-88
2022/07/20 01:24:32;;;;;;;8.50;6.85;;;;;;;22.81;41.92;100718.81;668010;29;1752;-87
2022/07/20 01:24:53;;;;;;;7.05;6.35;;;;;;;22.86;42.15;100726.66;671789;29;1576;-87
2022/07/20 01:25:14;;;;;;;6.80;6.10;;;;;;;22.84;42.26;100725.84;667126;29;1176;-87
2022/07/20 01:25:35;;;;;;;7.97;6.10;;;;;;;22.73;42.04;100710.13;669840;29;1728;-87
2022/07/20 01:25:57;;;;;;;9.23;6.28;;;;;;;22.80;42.56;100721.53;670742;29;1228;-88
2022/07/20 01:26:19;;;;;;;10.57;6.30;;;;;;;22.79;42.47;100723.28;666684;29;1470;-88
2022/07/20 01:26:41;;;;;;;10.18;6.50;;;;;;;22.77;42.43;100714.47;666051;29;1828;-87
2022/07/20 01:27:04;;;;;;;9.93;6.53;;;;;;;22.78;42.49;100721.56;659328;30;1338;-88
2022/07/20 01:27:25;;;;;;;10.15;6.90;;;;;;;22.79;42.58;100725.09;664740;29;1849;-88
2022/07/20 01:27:46;;;;;;;10.68;6.70;;;;;;;22.79;42.56;100727.75;666151;29;1684;-88
2022/07/20 01:28:13;;;;;;;11.48;6.70;;;;;;;22.77;42.45;100718.91;666495;29;1721;-87
2022/07/20 01:28:34;;;;;;;12.10;6.40;;;;;;;22.75;42.46;100721.63;666041;29;1773;-87
2022/07/20 01:28:54;;;;;;;11.25;6.30;;;;;;;22.76;42.22;100718.06;661501;29;1467;-88
2022/07/20 01:29:15;;;;;;;12.33;6.50;;;;;;;22.74;42.56;100715.44;663994;29;1282;-88
2022/07/20 01:29:36;;;;;;;13.23;6.38;;;;;;;22.70;42.34;100705.75;668331;29;2038;-88
2022/07/20 01:29:56;;;;;;;12.43;6.10;;;;;;;22.73;42.54;100713.69;671687;29;1172;-88
2022/07/20 01:30:17;;;;;;;10.83;6.10;;;;;;;22.78;42.50;100720.66;664303;29;1284;-87
2022/07/20 01:30:39;;;;;;;8.13;6.38;;;;;;;22.79;42.58;100719.78;666580;29;1936;-87
2022/07/20 01:31:08;;;;;;;7.53;6.32;;;;;;;22.76;42.20;100711.84;664278;29;1406;-87
2022/07/20 01:31:29;;;;;;;8.25;6.50;;;;;;;22.76;42.06;100706.53;668172;29;1851;-88
2022/07/20 01:31:50;;;;;;;10.98;6.72;;;;;;;22.77;42.23;100713.59;669262;29;2093;-88
2022/07/20 01:32:10;;;;;;;10.25;6.70;;;;;;;22.81;42.21;100723.28;665837;29;1276;-86
2022/07/20 01:32:32;;;;;;;11.70;6.70;;;;;;;22.71;42.26;100696.00;659643;29;1711;-87
2022/07/20 01:32:52;;;;;;;8.25;6.30;;;;;;;22.79;42.20;100722.44;666751;29;1295;-88
2022/07/20 01:33:13;;;;;;;11.13;6.27;;;;;;;22.76;42.28;100711.84;669767;29;1769;-88
2022/07/20 01:33:34;;;;;;;10.85;6.10;;;;;;;22.76;42.13;100711.84;665734;29;1963;-88
2022/07/20 01:33:54;;;;;;;12.30;6.50;;;;;;;22.77;42.19;100713.59;666502;29;1293;-87
2022/07/20 01:34:15;;;;;;;9.80;6.30;;;;;;;22.77;42.28;100717.16;666690;29;1272;-87
2022/07/20 01:34:36;;;;;;;8.23;6.22;;;;;;;22.74;42.62;100712.78;668561;29;1783;-87
2022/07/20 01:34:59;;;;;;;7.75;5.85;;;;;;;22.71;42.39;100707.53;661822;29;1163;-88
2022/07/20 01:35:20;;;;;;;7.43;5.72;;;;;;;22.72;42.27;100706.63;665536;29;1747;-87
2022/07/20 01:35:40;;;;;;;8.30;5.75;;;;;;;22.74;42.35;100719.84;668000;29;1620;-87
2022/07/20 01:36:01;;;;;;;7.90;6.10;;;;;;;22.75;42.53;100716.31;664221;29;1130;-88
2022/07/20 01:36:22;;;;;;;8.48;6.70;;;;;;;22.72;42.37;100709.28;665047;29;1737;-88
2022/07/20 01:36:43;;;;;;;9.00;6.90;;;;;;;22.77;42.44;100718.91;664846;29;1861;-88
2022/07/20 01:37:31;;;;;;;10.75;6.90;;;;;;;22.79;42.20;100722.44;666747;29;1205;-88
2022/07/20 01:37:52;;;;;;;13.07;6.55;;;;;;;22.72;42.19;100706.63;666528;29;1773;-88
2022/07/20 01:38:13;;;;;;;10.18;6.22;;;;;;;22.69;42.57;100709.34;666103;29;1545;-88
2022/07/20 01:38:34;;;;;;;6.75;6.05;;;;;;;22.67;42.55;100710.31;663600;29;1661;-87
2022/07/20 01:38:55;;;;;;;6.70;6.00;;;;;;;22.71;42.56;100726.16;668273;29;1592;-87
2022/07/20 01:39:15;;;;;;;8.33;6.33;;;;;;;22.64;42.50;100705.94;666123;29;1519;-88
2022/07/20 01:39:36;;;;;;;8.77;6.50;;;;;;;22.67;42.66;100716.47;668721;29;1509;-88
2022/07/20 01:39:57;;;;;;;8.02;6.30;;;;;;;22.64;42.35;100713.91;668817;29;1604;-88
2022/07/20 01:40:18;;;;;;;10.13;6.35;;;;;;;22.60;42.52;100707.78;664244;29;1253;-88
2022/07/20 01:40:39;;;;;;;11.10;6.30;;;;;;;22.58;42.80;100703.41;664244;29;1889;-87
2022/07/20 01:41:05;;;;;;;11.10;6.30;;;;;;;22.60;42.93;100706.91;664727;29;1230;-88
2022/07/20 01:41:26;;;;;;;8.13;6.00;;;;;;;22.63;42.83;100716.59;666448;29;1221;-88
2022/07/20 01:41:52;;;;;;;9.33;6.10;;;;;;;22.59;42.97;100706.03;665684;29;1684;-87
2022/07/20 01:42:13;;;;;;;10.63;6.50;;;;;;;22.62;42.74;100706.88;666460;29;1253;-87
2022/07/20 01:42:34;;;;;;;11.18;6.50;;;;;;;22.64;43.05;100713.91;663962;29;1173;-88
2022/07/20 01:42:54;;;;;;;8.98;6.40;;;;;;;22.62;42.97;100705.06;666620;29;1137;-88
2022/07/20 01:43:15;;;;;;;8.17;6.40;;;;;;;22.62;42.98;100706.88;669097;29;1107;-88
2022/07/20 01:43:36;;;;;;;7.63;6.55;;;;;;;22.60;42.70;100704.25;665477;29;1789;-88
2022/07/20 01:43:59;;;;;;;8.35;6.75;;;;;;;22.65;42.94;100714.75;661762;29;1389;-88
2022/07/20 01:44:21;;;;;;;9.30;6.55;;;;;;;22.64;43.01;100707.69;663522;29;1702;-88
2022/07/20 01:44:42;;;;;;;11.15;6.60;;;;;;;22.53;43.03;100690.22;673665;29;1571;-88
2022/07/20 01:45:03;;;;;;;11.70;6.43;;;;;;;22.67;42.93;100716.47;667772;29;1278;-87
2022/07/20 01:45:24;;;;;;;11.48;6.50;;;;;;;22.62;42.89;100705.06;666070;29;1738;-87
2022/07/20 01:45:44;;;;;;;11.63;6.38;;;;;;;22.66;42.97;100717.41;672948;29;1811;-88
2022/07/20 01:46:17;;;;;;;11.00;6.40;;;;;;;22.61;42.99;100708.66;671343;29;1192;-88
2022/07/20 01:46:38;;;;;;;12.48;7.05;;;;;;;22.62;43.04;100710.38;665897;29;1899;-88
2022/07/20 01:46:59;;;;;;;12.75;7.13;;;;;;;22.54;43.03;100697.28;663074;29;1801;-88
2022/07/20 01:47:19;;;;;;;9.50;6.63;;;;;;;22.60;43.02;100707.78;666044;29;1621;-88
2022/07/20 01:47:41;;;;;;;7.20;6.00;;;;;;;22.60;42.95;100702.47;669502;29;1759;-87
2022/07/20 01:48:01;;;;;;;7.90;6.40;;;;;;;22.63;42.86;100712.16;671787;29;1314;-88